createdAt,value
2019-06-10T00:02:22.378Z,15.60
2019-06-10T00:05:10.954Z,15.60
2019-06-10T00:08:01.138Z,15.60
2019-06-10T00:10:47.626Z,15.60
2019-06-10T00:13:35.549Z,15.60
2019-06-10T00:16:22.680Z,15.60
2019-06-10T00:19:12.536Z,15.60
2019-06-10T00:21:59.887Z,15.60
2019-06-10T00:24:48.361Z,15.60
2019-06-10T00:27:35.621Z,15.60
2019-06-10T00:30:23.138Z,15.60
2019-06-10T00:33:12.646Z,15.60
2019-06-10T00:36:03.725Z,15.50
2019-06-10T00:38:51.812Z,15.50
2019-06-10T00:41:38.912Z,15.50
2019-06-10T00:44:26.829Z,15.50
2019-06-10T00:47:15.184Z,15.50
2019-06-10T00:50:07.297Z,15.50
2019-06-10T00:52:52.681Z,15.50
2019-06-10T00:55:41.476Z,15.40
2019-06-10T00:58:32.025Z,15.40
2019-06-10T01:01:18.929Z,15.30
2019-06-10T01:04:06.953Z,15.40
2019-06-10T01:06:54.873Z,15.40
2019-06-10T01:09:42.284Z,15.30
2019-06-10T01:12:31.651Z,15.40
2019-06-10T01:15:21.728Z,15.40
2019-06-10T01:18:28.221Z,15.30
2019-06-10T01:20:58.048Z,15.30
2019-06-10T01:23:45.631Z,15.30
2019-06-10T01:26:33.309Z,15.30
2019-06-10T01:29:21.234Z,15.30
2019-06-10T01:32:09.733Z,15.30
2019-06-10T01:34:58.069Z,15.30
2019-06-10T01:37:45.709Z,15.40
2019-06-10T01:40:33.493Z,15.40
2019-06-10T01:43:21.400Z,15.30
2019-06-10T01:46:12.634Z,15.30
2019-06-10T01:49:00.659Z,15.40
2019-06-10T01:51:48.296Z,15.40
2019-06-10T01:54:35.529Z,15.30
2019-06-10T01:57:23.273Z,15.10
2019-06-10T02:00:17.155Z,15.20
2019-06-10T02:03:03.606Z,15.30
2019-06-10T02:05:51.660Z,15.40
2019-06-10T02:08:41.689Z,15.40
2019-06-10T02:11:28.155Z,15.40
2019-06-10T02:14:17.855Z,15.50
2019-06-10T02:17:04.598Z,15.50
2019-06-10T02:19:52.079Z,15.50
2019-06-10T02:22:41.166Z,15.60
2019-06-10T02:25:30.521Z,15.60
2019-06-10T02:28:19.707Z,15.60
2019-06-10T02:31:07.425Z,15.60
2019-06-10T02:33:55.155Z,15.60
2019-06-10T02:36:44.558Z,15.60
2019-06-10T02:39:37.575Z,15.60
2019-06-10T02:42:35.851Z,15.60
2019-06-10T02:45:32.682Z,15.60
2019-06-10T02:48:13.701Z,15.60
2019-06-10T02:51:08.071Z,15.70
2019-06-10T02:53:55.481Z,15.60
2019-06-10T02:56:44.077Z,15.60
2019-06-10T02:59:36.163Z,15.50
2019-06-10T03:02:23.802Z,15.60
2019-06-10T03:05:13.928Z,15.60
2019-06-10T03:08:00.090Z,15.60
2019-06-10T03:10:47.412Z,15.50
2019-06-10T03:13:35.112Z,15.50
2019-06-10T03:16:32.745Z,15.50
2019-06-10T03:19:37.057Z,15.50
2019-06-10T03:22:09.367Z,15.40
2019-06-10T03:24:56.771Z,15.30
2019-06-10T03:27:44.217Z,15.30
2019-06-10T03:30:46.710Z,15.30
2019-06-10T03:33:27.645Z,15.30
2019-06-10T03:36:12.367Z,15.20
2019-06-10T03:38:59.598Z,15.20
2019-06-10T03:41:47.493Z,15.20
2019-06-10T03:44:34.886Z,15.20
2019-06-10T03:47:24.315Z,15.20
2019-06-10T03:50:13.186Z,15.20
2019-06-10T03:53:04.275Z,15.30
2019-06-10T03:55:52.538Z,15.30
2019-06-10T03:58:39.517Z,15.30
2019-06-10T04:01:28.613Z,15.40
2019-06-10T04:04:15.748Z,15.40
2019-06-10T04:07:03.777Z,15.40
2019-06-10T04:09:52.624Z,15.40
2019-06-10T04:12:40.082Z,15.40
2019-06-10T04:15:28.421Z,15.50
2019-06-10T04:18:17.852Z,15.40
2019-06-10T04:21:05.785Z,15.50
2019-06-10T04:23:53.562Z,15.50
2019-06-10T04:26:43.252Z,15.60
2019-06-10T04:29:32.774Z,15.60
2019-06-10T04:32:20.256Z,15.60
2019-06-10T04:35:08.541Z,15.50
2019-06-10T04:37:56.059Z,15.40
2019-06-10T04:40:43.547Z,15.40
2019-06-10T04:43:32.676Z,15.50
2019-06-10T04:46:22.830Z,15.60
2019-06-10T04:49:09.131Z,15.60
2019-06-10T04:51:56.453Z,15.60
2019-06-10T04:54:44.094Z,15.70
2019-06-10T04:57:32.771Z,15.80
2019-06-10T05:00:24.098Z,15.80
2019-06-10T05:03:12.198Z,15.90
2019-06-10T05:05:59.698Z,15.80
2019-06-10T05:08:47.365Z,15.80
2019-06-10T05:11:35.282Z,15.80
2019-06-10T05:14:25.038Z,15.80
2019-06-10T05:17:12.716Z,15.90
2019-06-10T05:20:02.532Z,16.00
2019-06-10T05:22:49.897Z,16.00
2019-06-10T05:25:37.410Z,16.00
2019-06-10T05:28:25.975Z,16.00
2019-06-10T05:31:14.512Z,16.10
2019-06-10T05:34:02.504Z,16.10
2019-06-10T05:36:52.418Z,16.10
2019-06-10T05:39:39.121Z,16.00
2019-06-10T05:42:28.161Z,16.10
2019-06-10T05:45:16.672Z,16.20
2019-06-10T05:48:04.620Z,16.20
2019-06-10T05:51:02.262Z,16.30
2019-06-10T05:53:45.737Z,16.30
2019-06-10T05:56:33.824Z,16.30
2019-06-10T05:59:22.752Z,16.40
2019-06-10T06:02:09.849Z,16.50
2019-06-10T06:04:57.612Z,16.60
2019-06-10T06:07:45.281Z,16.80
2019-06-10T06:10:35.570Z,17.00
2019-06-10T06:13:23.212Z,17.10
2019-06-10T06:16:12.622Z,17.20
2019-06-10T06:19:00.415Z,17.10
2019-06-10T06:21:48.239Z,17.00
2019-06-10T06:24:35.829Z,17.00
2019-06-10T06:27:23.121Z,17.00
2019-06-10T06:30:18.248Z,17.00
2019-06-10T06:33:02.928Z,17.00
2019-06-10T06:35:52.461Z,17.00
2019-06-10T06:38:39.720Z,17.10
2019-06-10T06:41:27.436Z,17.20
2019-06-10T06:44:14.819Z,17.30
2019-06-10T06:47:02.681Z,17.40
2019-06-10T06:49:50.209Z,17.70
2019-06-10T06:53:09.262Z,17.90
2019-06-10T06:55:27.016Z,18.40
2019-06-10T06:58:14.644Z,18.80
2019-06-10T07:01:10.145Z,19.00
2019-06-10T07:03:53.578Z,19.10
2019-06-10T07:06:43.022Z,19.10
2019-06-10T07:09:35.615Z,19.00
2019-06-10T07:12:24.478Z,18.50
2019-06-10T07:15:12.879Z,18.20
2019-06-10T07:18:02.318Z,18.30
2019-06-10T07:20:49.681Z,18.50
2019-06-10T07:23:40.527Z,19.00
2019-06-10T07:26:26.898Z,19.20
2019-06-10T07:29:15.288Z,19.50
2019-06-10T07:32:03.345Z,19.60
2019-06-10T07:34:52.513Z,20.00
2019-06-10T07:37:41.678Z,20.40
2019-06-10T07:40:29.498Z,20.30
2019-06-10T07:43:16.900Z,20.70
2019-06-10T07:46:04.472Z,20.80
2019-06-10T07:48:56.225Z,20.70
2019-06-10T07:51:44.601Z,20.40
2019-06-10T07:54:32.862Z,20.40
2019-06-10T07:57:19.758Z,20.50
2019-06-10T08:00:14.685Z,20.40
2019-06-10T08:03:02.558Z,20.20
2019-06-10T08:05:52.574Z,20.20
2019-06-10T08:08:39.383Z,20.10
2019-06-10T08:11:27.115Z,20.10
2019-06-10T08:14:14.391Z,20.10
2019-06-10T08:17:03.124Z,20.20
2019-06-10T08:19:53.853Z,20.40
2019-06-10T08:22:49.824Z,20.80
2019-06-10T08:25:29.535Z,20.70
2019-06-10T08:28:17.151Z,20.40
2019-06-10T08:31:05.229Z,20.30
2019-06-10T08:33:53.534Z,20.30
2019-06-10T08:36:46.314Z,20.40
2019-06-10T08:39:33.260Z,20.80
2019-06-10T08:42:20.023Z,21.40
2019-06-10T08:45:07.548Z,21.50
2019-06-10T08:47:55.378Z,21.80
2019-06-10T08:50:46.589Z,22.20
2019-06-10T08:53:33.190Z,22.60
2019-06-10T08:56:22.394Z,22.80
2019-06-10T08:59:09.765Z,22.50
2019-06-10T09:01:57.274Z,22.40
2019-06-10T09:04:47.610Z,22.50
2019-06-10T09:07:33.800Z,22.30
2019-06-10T09:10:22.689Z,22.80
2019-06-10T09:13:12.936Z,23.30
2019-06-10T09:16:10.792Z,23.20
2019-06-10T09:18:51.209Z,23.10
2019-06-10T09:21:39.160Z,23.40
2019-06-10T09:24:27.717Z,22.70
2019-06-10T09:27:15.541Z,22.90
2019-06-10T09:30:04.529Z,23.70
2019-06-10T09:32:56.241Z,24.40
2019-06-10T09:35:45.667Z,25.10
2019-06-10T09:38:33.390Z,23.60
2019-06-10T09:41:30.908Z,23.20
2019-06-10T09:44:12.912Z,23.40
2019-06-10T09:47:03.377Z,24.00
2019-06-10T09:49:55.477Z,24.30
2019-06-10T09:52:47.566Z,24.20
2019-06-10T09:55:32.933Z,24.00
2019-06-10T09:58:23.157Z,23.90
2019-06-10T10:01:13.065Z,23.50
2019-06-10T10:04:00.752Z,23.70
2019-06-10T10:06:51.921Z,23.60
2019-06-10T10:09:38.341Z,24.00
2019-06-10T10:12:26.546Z,24.40
2019-06-10T10:15:26.540Z,24.50
2019-06-10T10:18:06.918Z,24.60
2019-06-10T10:20:59.260Z,26.00
2019-06-10T10:23:56.820Z,27.50
2019-06-10T10:26:34.154Z,28.30
2019-06-10T10:29:21.944Z,28.00
2019-06-10T10:32:09.486Z,27.90
2019-06-10T10:34:57.701Z,27.10
2019-06-10T10:37:46.412Z,25.80
2019-06-10T10:40:34.357Z,25.50
2019-06-10T10:43:32.014Z,24.90
2019-06-10T10:46:13.970Z,24.30
2019-06-10T10:49:02.734Z,24.10
2019-06-10T10:51:51.162Z,23.80
2019-06-10T10:54:39.405Z,23.50
2019-06-10T10:57:27.736Z,23.30
2019-06-10T11:00:18.743Z,23.20
2019-06-10T11:03:06.554Z,23.20
2019-06-10T11:06:00.468Z,23.10
2019-06-10T11:08:45.326Z,23.10
2019-06-10T11:11:33.394Z,23.00
2019-06-10T11:14:23.043Z,22.90
2019-06-10T11:17:11.209Z,22.60
2019-06-10T11:20:18.653Z,22.70
2019-06-10T11:23:06.765Z,22.60
2019-06-10T11:25:57.055Z,22.80
2019-06-10T11:28:45.231Z,22.60
2019-06-10T11:31:33.417Z,22.50
2019-06-10T11:34:21.498Z,22.30
2019-06-10T11:37:09.629Z,22.30
2019-06-10T11:39:57.604Z,22.00
2019-06-10T11:42:46.281Z,21.80
2019-06-10T11:45:34.398Z,21.80
2019-06-10T11:48:23.934Z,21.70
2019-06-10T11:51:13.201Z,21.50
2019-06-10T11:54:03.486Z,21.40
2019-06-10T11:56:54.592Z,21.30
2019-06-10T11:59:43.261Z,21.50
2019-06-10T12:02:32.840Z,21.60
2019-06-10T12:05:23.502Z,21.60
2019-06-10T12:08:13.085Z,21.80
2019-06-10T12:11:02.515Z,21.60
2019-06-10T12:13:53.681Z,21.60
2019-06-10T12:19:33.566Z,21.40
2019-06-10T12:22:19.485Z,21.40
2019-06-10T12:25:30.498Z,21.30
2019-06-10T12:28:01.833Z,21.30
2019-06-10T12:30:48.051Z,21.20
2019-06-10T12:33:36.346Z,21.10
2019-06-10T12:36:24.450Z,20.80
2019-06-10T12:39:15.556Z,20.70
2019-06-10T12:42:06.149Z,20.40
2019-06-10T12:44:54.485Z,20.10
2019-06-10T12:47:42.513Z,19.90
2019-06-10T12:50:30.886Z,19.80
2019-06-10T12:53:18.720Z,19.80
2019-06-10T12:56:10.596Z,19.80
2019-06-10T12:58:58.089Z,19.70
2019-06-10T13:01:47.206Z,19.70
2019-06-10T13:04:35.581Z,19.70
2019-06-10T13:07:24.163Z,19.70
2019-06-10T13:10:15.016Z,19.60
2019-06-10T13:13:06.899Z,19.70
2019-06-10T13:15:53.416Z,19.50
2019-06-10T13:18:41.190Z,19.40
2019-06-10T13:21:28.537Z,19.40
2019-06-10T13:24:16.032Z,19.40
2019-06-10T13:27:06.547Z,19.40
2019-06-10T13:29:53.411Z,19.30
2019-06-10T13:32:43.298Z,19.20
2019-06-10T13:35:29.469Z,19.20
2019-06-10T13:38:18.530Z,19.20
2019-06-10T13:41:06.226Z,19.20
2019-06-10T13:43:53.641Z,19.30
2019-06-10T13:46:42.535Z,19.00
2019-06-10T13:49:32.987Z,18.70
2019-06-10T13:52:19.753Z,18.50
2019-06-10T13:55:10.812Z,18.50
2019-06-10T13:57:59.419Z,18.60
2019-06-10T14:00:47.495Z,18.80
2019-06-10T14:03:35.578Z,19.00
2019-06-10T14:06:37.662Z,19.10
2019-06-10T14:09:16.563Z,19.10
2019-06-10T14:12:02.063Z,19.00
2019-06-10T14:14:50.351Z,18.70
2019-06-10T14:17:41.801Z,18.60
2019-06-10T14:20:28.835Z,18.60
2019-06-10T14:23:17.613Z,18.60
2019-06-10T14:26:37.160Z,18.80
2019-06-10T14:29:15.803Z,19.00
2019-06-10T14:32:04.144Z,18.90
2019-06-10T14:34:52.772Z,19.00
2019-06-10T14:37:42.851Z,19.00
2019-06-10T14:40:32.450Z,19.10
2019-06-10T14:43:22.829Z,19.10
2019-06-10T14:46:13.859Z,19.10
2019-06-10T14:48:58.876Z,18.90
2019-06-10T14:51:46.855Z,19.10
2019-06-10T14:54:34.926Z,19.30
2019-06-10T14:57:23.083Z,19.50
2019-06-10T15:00:15.644Z,19.50
2019-06-10T15:03:02.477Z,19.50
2019-06-10T15:05:52.956Z,19.60
2019-06-10T15:08:42.725Z,19.60
2019-06-10T15:11:32.141Z,19.80
2019-06-10T15:14:20.463Z,20.10
2019-06-10T15:17:10.581Z,20.10
2019-06-10T15:19:59.031Z,20.20
2019-06-10T15:22:46.916Z,20.20
2019-06-10T15:25:49.000Z,20.30
2019-06-10T15:28:44.056Z,20.30
2019-06-10T15:31:32.672Z,20.30
2019-06-10T15:34:20.420Z,20.10
2019-06-10T15:37:08.881Z,19.70
2019-06-10T15:39:56.889Z,19.60
2019-06-10T15:42:45.240Z,19.40
2019-06-10T15:45:32.794Z,19.30
2019-06-10T15:48:25.116Z,19.10
2019-06-10T15:51:11.013Z,18.90
2019-06-10T15:54:02.441Z,18.80
2019-06-10T15:56:55.778Z,18.90
2019-06-10T15:59:39.235Z,18.80
2019-06-10T16:02:26.995Z,18.90
2019-06-10T16:05:16.139Z,19.00
2019-06-10T16:08:04.718Z,19.10
2019-06-10T16:10:52.717Z,19.20
2019-06-10T16:13:42.850Z,19.10
2019-06-10T16:16:32.466Z,18.90
2019-06-10T16:19:19.717Z,18.90
2019-06-10T16:22:07.507Z,18.90
2019-06-10T16:24:54.959Z,18.90
2019-06-10T16:27:48.461Z,18.90
2019-06-10T16:30:31.005Z,18.90
2019-06-10T16:33:18.640Z,18.90
2019-06-10T16:36:06.286Z,18.80
2019-06-10T16:38:54.335Z,18.90
2019-06-10T16:41:43.095Z,18.80
2019-06-10T16:44:32.803Z,18.80
2019-06-10T16:47:21.752Z,18.80
2019-06-10T16:50:12.202Z,18.70
2019-06-10T16:52:58.884Z,18.70
2019-06-10T16:55:46.597Z,18.80
2019-06-10T16:58:34.085Z,18.80
2019-06-10T17:01:24.965Z,18.80
2019-06-10T17:04:12.436Z,18.80
2019-06-10T17:07:01.980Z,18.70
2019-06-10T17:09:49.130Z,18.70
2019-06-10T17:12:36.108Z,18.60
2019-06-10T17:15:23.334Z,18.50
2019-06-10T17:18:12.967Z,18.50
2019-06-10T17:21:03.169Z,18.40
2019-06-10T17:23:49.309Z,18.40
2019-06-10T17:26:38.205Z,18.30
2019-06-10T17:29:27.271Z,18.20
2019-06-10T17:32:15.166Z,18.20
2019-06-10T17:35:02.517Z,18.20
2019-06-10T17:37:52.295Z,18.10
2019-06-10T17:40:40.806Z,18.00
2019-06-10T17:43:47.991Z,18.00
2019-06-10T17:46:35.866Z,17.90
2019-06-10T17:49:25.571Z,17.90
2019-06-10T17:52:13.725Z,17.80
2019-06-10T17:55:03.370Z,17.80
2019-06-10T17:57:50.689Z,17.80
2019-06-10T18:00:38.075Z,17.50
2019-06-10T18:03:26.567Z,17.30
2019-06-10T18:06:14.892Z,17.30
2019-06-10T18:09:04.005Z,17.10
2019-06-10T18:11:52.484Z,17.00
2019-06-10T18:14:42.692Z,16.80
2019-06-10T18:17:30.449Z,17.10
2019-06-10T18:20:18.333Z,17.50
2019-06-10T18:23:05.879Z,17.60
2019-06-10T18:25:54.372Z,17.60
2019-06-10T18:29:04.767Z,17.60
2019-06-10T18:31:33.527Z,17.40
2019-06-10T18:34:22.647Z,17.50
2019-06-10T18:37:10.834Z,17.50
2019-06-10T18:39:58.117Z,17.50
2019-06-10T18:42:46.177Z,17.50
2019-06-10T18:45:37.873Z,17.50
2019-06-10T18:48:23.271Z,17.50
2019-06-10T18:51:12.497Z,17.50
2019-06-10T18:54:00.025Z,17.50
2019-06-10T18:56:47.618Z,17.50
2019-06-10T18:59:36.683Z,17.20
2019-06-10T19:02:24.147Z,17.30
2019-06-10T19:05:13.147Z,17.30
2019-06-10T19:08:02.418Z,17.30
2019-06-10T19:10:50.026Z,17.40
2019-06-10T19:13:38.784Z,17.40
2019-06-10T19:16:26.828Z,17.40
2019-06-10T19:19:14.360Z,17.40
2019-06-10T19:22:08.723Z,17.30
2019-06-10T19:24:52.952Z,17.30
2019-06-10T19:27:44.148Z,17.20
2019-06-10T19:30:34.400Z,17.10
2019-06-10T19:33:20.467Z,16.90
2019-06-10T19:36:08.449Z,17.00
2019-06-10T19:38:55.842Z,17.00
2019-06-10T19:41:46.991Z,17.10
2019-06-10T19:44:34.040Z,17.10
2019-06-10T19:47:23.522Z,17.10
2019-06-10T19:50:12.219Z,17.10
2019-06-10T19:53:02.467Z,17.20
2019-06-10T19:55:49.371Z,17.10
2019-06-10T19:58:36.876Z,17.20
2019-06-10T20:01:24.720Z,17.10
2019-06-10T20:04:15.609Z,17.10
2019-06-10T20:07:02.531Z,17.10
2019-06-10T20:09:52.125Z,17.10
2019-06-10T20:12:38.957Z,17.20
2019-06-10T20:15:26.631Z,17.10
2019-06-10T20:18:14.160Z,17.10
2019-06-10T20:21:02.707Z,17.10
2019-06-10T20:23:53.023Z,17.10
2019-06-10T20:26:42.856Z,17.00
2019-06-10T20:29:29.406Z,17.00
2019-06-10T20:32:16.817Z,16.90
2019-06-10T20:35:05.888Z,16.80
2019-06-10T20:37:54.175Z,16.70
2019-06-10T20:40:43.083Z,16.70
2019-06-10T20:43:32.909Z,16.60
2019-06-10T20:46:19.970Z,16.60
2019-06-10T20:49:07.412Z,16.50
2019-06-10T20:52:09.816Z,16.50
2019-06-10T20:54:46.339Z,16.40
2019-06-10T20:57:33.590Z,16.20
2019-06-10T21:00:41.923Z,16.10
2019-06-10T21:03:27.064Z,16.10
2019-06-10T21:06:14.704Z,16.10
2019-06-10T21:09:03.735Z,16.00
2019-06-10T21:11:53.882Z,16.00
2019-06-10T21:14:42.342Z,15.80
2019-06-10T21:17:28.977Z,15.80
2019-06-10T21:20:16.435Z,15.90
2019-06-10T21:23:04.450Z,15.90
2019-06-10T21:25:52.468Z,15.80
2019-06-10T21:28:39.126Z,15.80
2019-06-10T21:31:28.836Z,15.80
2019-06-10T21:34:13.934Z,15.90
2019-06-10T21:37:03.013Z,15.80
2019-06-10T21:39:49.614Z,15.80
2019-06-10T21:42:36.987Z,15.70
2019-06-10T21:45:23.426Z,15.60
2019-06-10T21:48:09.586Z,15.60
2019-06-10T21:50:56.260Z,15.40
2019-06-10T21:53:42.854Z,15.20
2019-06-10T21:56:29.253Z,15.20
2019-06-10T21:59:15.795Z,15.20
2019-06-10T22:02:02.465Z,15.20
2019-06-10T22:04:49.418Z,15.10
2019-06-10T22:07:36.497Z,15.20
2019-06-10T22:10:23.273Z,15.20
2019-06-10T22:13:12.174Z,15.10
2019-06-10T22:15:58.040Z,15.10
2019-06-10T22:18:44.721Z,15.00
2019-06-10T22:21:32.612Z,15.10
2019-06-10T22:24:19.327Z,15.10
2019-06-10T22:27:06.120Z,15.20
2019-06-10T22:29:54.252Z,15.20
2019-06-10T22:32:42.817Z,15.10
2019-06-10T22:35:28.744Z,15.10
2019-06-10T22:38:15.098Z,15.10
2019-06-10T22:41:03.292Z,14.90
2019-06-10T22:43:49.448Z,14.90
2019-06-10T22:46:36.304Z,14.90
2019-06-10T22:49:23.615Z,14.80
2019-06-10T22:52:12.428Z,14.70
2019-06-10T22:54:58.743Z,14.70
2019-06-10T22:57:45.280Z,14.70
2019-06-10T23:00:31.619Z,14.80
2019-06-10T23:03:18.165Z,14.90
2019-06-10T23:06:05.506Z,15.00
2019-06-10T23:08:54.762Z,15.10
2019-06-10T23:11:42.258Z,15.00
2019-06-10T23:14:28.129Z,15.00
2019-06-10T23:17:14.965Z,15.00
2019-06-10T23:20:03.256Z,15.00
2019-06-10T23:22:49.523Z,14.90
2019-06-10T23:25:36.219Z,15.00
2019-06-10T23:28:22.873Z,15.10
2019-06-10T23:31:09.709Z,15.00
2019-06-10T23:33:56.540Z,14.90
2019-06-10T23:36:43.309Z,15.00
2019-06-10T23:39:29.929Z,14.90
2019-06-10T23:42:16.549Z,14.90
2019-06-10T23:45:05.002Z,14.50
2019-06-10T23:47:52.868Z,14.40
2019-06-10T23:50:39.575Z,14.20
2019-06-10T23:53:25.896Z,14.10
2019-06-10T23:56:12.899Z,14.10
2019-06-10T23:59:00.298Z,14.20
